Time;durP1;ratioP1;P1;durP2;ratioP2;P2;SDS_P1;SDS_P2;PMS_P1;PMS_P2;Temp;Humidity;BMP_temperature;BMP_pressure;BME280_temperature;BME280_humidity;BME280_pressure;Samples;Min_cycle;Max_cycle;Signal;HPM_P1;HPM_P2
2023/05/26 00:02:24;;;;;;;8.50;7.60;;;;;;;19.08;62.34;99692.41;109233;1253;72654;-79
2023/05/26 00:04:58;;;;;;;9.10;7.70;;;;;;;19.07;62.37;99689.74;109424;1254;69066;-78
2023/05/26 00:07:28;;;;;;;10.50;7.00;;;;;;;19.04;62.31;99688.29;109270;1254;71437;-83
2023/05/26 00:09:56;;;;;;;9.60;7.50;;;;;;;19.00;62.36;99692.09;109302;1254;58814;-81
2023/05/26 00:12:23;;;;;;;7.70;6.90;;;;;;;18.95;62.40;99694.96;109461;1253;58733;-81
2023/05/26 00:14:54;;;;;;;9.30;7.70;;;;;;;18.94;62.43;99696.63;109244;1254;72956;-82
2023/05/26 00:17:22;;;;;;;8.20;7.00;;;;;;;18.93;62.35;99701.00;109410;1254;69525;-80
2023/05/26 00:19:52;;;;;;;8.60;7.60;;;;;;;18.93;62.40;99700.63;109151;1254;71694;-79
2023/05/26 00:22:19;;;;;;;10.00;7.70;;;;;;;18.93;62.19;99699.59;109483;1253;58768;-78
2023/05/26 00:24:47;;;;;;;9.40;7.70;;;;;;;18.91;61.98;99698.45;109383;1253;59325;-78
2023/05/26 00:27:14;;;;;;;8.80;6.90;;;;;;;18.88;62.05;99694.75;109378;1254;72768;-79
2023/05/26 00:29:43;;;;;;;7.80;6.90;;;;;;;18.86;62.06;99692.95;109328;1254;71088;-77
2023/05/26 00:32:11;;;;;;;8.50;7.70;;;;;;;18.82;61.92;99691.84;109331;1254;73984;-79
2023/05/26 00:34:40;;;;;;;8.20;7.30;;;;;;;18.79;61.91;99694.66;109239;1254;58793;-80
2023/05/26 00:37:09;;;;;;;17.00;7.50;;;;;;;18.76;62.10;99692.73;109393;1253;57802;-78
2023/05/26 00:39:37;;;;;;;8.10;7.20;;;;;;;18.75;61.95;99694.65;109381;1253;72853;-80
2023/05/26 00:42:05;;;;;;;9.60;7.40;;;;;;;18.75;61.79;99696.90;109247;1254;69313;-79
2023/05/26 00:44:33;;;;;;;8.40;7.50;;;;;;;18.74;61.73;99693.43;109412;1254;73698;-81
2023/05/26 00:47:00;;;;;;;8.50;7.30;;;;;;;18.73;61.72;99694.76;109071;1254;61032;-79
2023/05/26 00:49:28;;;;;;;8.30;7.60;;;;;;;18.72;61.82;99691.58;109430;1253;58911;-82
2023/05/26 00:51:56;;;;;;;8.30;7.50;;;;;;;18.69;61.97;99688.04;109306;1253;72435;-81
2023/05/26 00:54:24;;;;;;;9.60;7.40;;;;;;;18.65;61.97;99685.92;109310;1254;68737;-81
2023/05/26 00:56:54;;;;;;;9.10;7.30;;;;;;;18.61;62.04;99680.63;109458;1254;71415;-80
2023/05/26 00:59:23;;;;;;;8.70;7.40;;;;;;;18.58;62.05;99685.30;109173;1254;59122;-80
2023/05/26 01:01:50;;;;;;;9.30;7.80;;;;;;;18.53;62.13;99683.91;106849;1254;60573;-82
2023/05/26 01:04:18;;;;;;;9.10;8.20;;;;;;;18.42;62.34;99690.38;106078;1258;72387;-82
2023/05/26 01:06:49;;;;;;;8.50;7.70;;;;;;;18.34;62.58;99689.86;106102;1254;69185;-82
2023/05/26 01:09:16;;;;;;;11.60;7.80;;;;;;;18.27;62.97;99695.09;106229;1255;72507;-80
2023/05/26 01:11:54;;;;;;;8.80;7.80;;;;;;;18.21;63.24;99691.95;105942;1254;60912;-82
2023/05/26 01:14:51;;;;;;;8.70;7.90;;;;;;;18.12;63.38;99694.02;106110;1253;60342;-80
2023/05/26 01:17:57;;;;;;;8.40;7.60;;;;;;;18.03;63.68;99689.33;105971;1259;72651;-80
2023/05/26 01:20:29;;;;;;;8.40;7.60;;;;;;;17.96;63.88;99694.13;106541;1254;71057;-79
2023/05/26 01:23:06;;;;;;;8.80;7.80;;;;;;;17.92;64.12;99695.73;106067;1255;71126;-80
2023/05/26 01:26:15;;;;;;;8.50;7.60;;;;;;;17.89;64.27;99702.77;106273;1253;60550;-76
2023/05/26 01:28:43;;;;;;;10.30;8.40;;;;;;;17.85;64.68;99708.50;108189;1253;58754;-80
2023/05/26 01:31:12;;;;;;;8.70;7.90;;;;;;;17.79;64.86;99711.83;107765;1254;72576;-79
2023/05/26 01:33:41;;;;;;;9.60;8.60;;;;;;;17.77;65.15;99709.52;105784;1255;70635;-79
2023/05/26 01:36:10;;;;;;;10.30;9.30;;;;;;;17.75;65.34;99715.20;105999;1260;72683;-78
2023/05/26 01:38:39;;;;;;;12.80;8.90;;;;;;;17.67;65.64;99716.52;107189;1253;60617;-81
2023/05/26 01:41:11;;;;;;;8.80;8.00;;;;;;;17.63;65.74;99719.05;107948;1254;60986;-81
2023/05/26 01:43:55;;;;;;;10.10;8.10;;;;;;;17.60;65.89;99720.85;107664;1255;73111;-81
2023/05/26 01:46:39;;;;;;;11.40;8.00;;;;;;;17.56;66.10;99722.11;106490;1254;70566;-82
2023/05/26 01:49:07;;;;;;;9.90;8.80;;;;;;;17.60;66.05;99715.40;106802;1258;72959;-81
2023/05/26 01:51:35;;;;;;;8.90;8.10;;;;;;;17.63;66.16;99717.48;107186;1259;60294;-82
2023/05/26 01:54:06;;;;;;;9.50;8.60;;;;;;;17.60;66.28;99716.31;107120;1254;62201;-83
2023/05/26 01:56:34;;;;;;;9.40;8.10;;;;;;;17.57;66.35;99717.60;106826;1260;72464;-85
2023/05/26 01:59:02;;;;;;;9.20;7.70;;;;;;;17.56;66.38;99718.52;107555;1254;68776;-86
2023/05/26 02:01:33;;;;;;;9.20;8.40;;;;;;;17.54;66.43;99717.36;107089;1254;74892;-83
2023/05/26 02:04:01;;;;;;;8.70;7.90;;;;;;;17.50;66.49;99717.59;106286;1254;60942;-81
2023/05/26 02:06:29;;;;;;;11.60;8.40;;;;;;;17.52;66.54;99724.86;106148;1254;60563;-83
2023/05/26 02:08:57;;;;;;;12.10;10.40;;;;;;;17.50;66.63;99722.61;105975;1254;72763;-83
2023/05/26 02:11:26;;;;;;;10.40;8.70;;;;;;;17.47;66.77;99724.39;106105;1254;71550;-81
2023/05/26 02:13:54;;;;;;;10.40;8.50;;;;;;;17.46;66.79;99721.33;106029;1254;72906;-79
2023/05/26 02:16:22;;;;;;;9.40;8.50;;;;;;;17.53;67.01;99722.21;105979;1254;60473;-81
2023/05/26 02:18:54;;;;;;;11.20;8.30;;;;;;;17.48;67.14;99722.11;105779;1254;60560;-81
2023/05/26 02:21:22;;;;;;;10.60;8.70;;;;;;;17.40;67.31;99723.27;106027;1253;72563;-83
2023/05/26 02:23:49;;;;;;;10.80;8.70;;;;;;;17.34;67.58;99722.79;105663;1254;70171;-82
2023/05/26 02:26:18;;;;;;;11.90;9.10;;;;;;;17.26;67.76;99719.31;105677;1261;71424;-80
2023/05/26 02:28:46;;;;;;;11.40;9.20;;;;;;;17.19;68.03;99721.07;105650;1254;60617;-79
2023/05/26 02:31:14;;;;;;;9.80;8.80;;;;;;;17.13;68.39;99725.38;105617;1254;60407;-79
2023/05/26 02:33:42;;;;;;;10.20;8.60;;;;;;;17.08;68.44;99725.44;105823;1260;72332;-82
2023/05/26 02:36:11;;;;;;;10.40;9.30;;;;;;;17.06;68.76;99726.77;106098;1260;68830;-81
2023/05/26 02:38:38;;;;;;;11.30;9.90;;;;;;;17.04;68.99;99727.84;105827;1259;72704;-80
2023/05/26 02:41:07;;;;;;;12.80;8.80;;;;;;;17.03;69.19;99723.80;105674;1259;60460;-76
2023/05/26 02:43:34;;;;;;;11.70;8.70;;;;;;;17.13;69.09;99722.52;105898;1254;60493;-80
2023/05/26 02:46:02;;;;;;;12.30;9.60;;;;;;;17.21;69.13;99724.58;106313;1258;72587;-82
2023/05/26 02:48:30;;;;;;;10.60;9.20;;;;;;;17.19;69.17;99726.97;107313;1258;69304;-80
2023/05/26 02:50:59;;;;;;;10.80;9.00;;;;;;;17.15;69.56;99724.10;105973;1253;71463;-83
2023/05/26 02:53:27;;;;;;;10.70;9.50;;;;;;;17.10;69.84;99727.17;105936;1253;60524;-83
2023/05/26 02:55:54;;;;;;;10.50;9.20;;;;;;;17.06;70.05;99723.64;106129;1254;60960;-84
2023/05/26 02:58:22;;;;;;;12.60;8.90;;;;;;;17.02;70.25;99723.96;106564;1260;74068;-82
2023/05/26 03:00:50;;;;;;;12.90;10.30;;;;;;;17.02;70.50;99727.39;107339;1254;69528;-83
2023/05/26 03:03:18;;;;;;;13.80;10.10;;;;;;;17.00;70.71;99726.98;107907;1253;72695;-81
2023/05/26 03:05:46;;;;;;;12.30;9.60;;;;;;;17.01;70.80;99726.36;107617;1260;60539;-82
2023/05/26 03:08:14;;;;;;;14.50;9.60;;;;;;;17.07;70.74;99730.65;107380;1254;60506;-81
2023/05/26 03:10:43;;;;;;;15.80;9.40;;;;;;;17.23;70.55;99734.71;105913;1254;73945;-81
2023/05/26 03:13:11;;;;;;;13.40;9.50;;;;;;;17.37;70.38;99736.05;106124;1254;68876;-80
2023/05/26 03:15:39;;;;;;;12.30;8.80;;;;;;;17.43;70.38;99729.94;107830;1254;72365;-80
2023/05/26 03:18:09;;;;;;;12.10;9.30;;;;;;;17.47;70.28;99732.20;107387;1258;60516;-83
2023/05/26 03:20:37;;;;;;;12.80;9.70;;;;;;;17.53;70.26;99727.95;106505;1253;60572;-83
2023/05/26 03:23:07;;;;;;;11.70;9.40;;;;;;;17.56;70.25;99730.84;107745;1260;72636;-83
2023/05/26 03:25:35;;;;;;;14.50;9.40;;;;;;;17.62;70.23;99734.94;106897;1260;69566;-85
2023/05/26 03:28:05;;;;;;;12.60;9.10;;;;;;;17.66;70.17;99737.36;106267;1254;73050;-84
2023/05/26 03:30:33;;;;;;;13.80;10.00;;;;;;;17.71;70.25;99740.95;107958;1254;60432;-82
2023/05/26 03:33:01;;;;;;;12.00;10.60;;;;;;;17.74;70.32;99743.38;107452;1253;60584;-83
2023/05/26 03:35:29;;;;;;;11.10;9.50;;;;;;;17.78;70.74;99745.89;106164;1254;72809;-86
2023/05/26 03:37:58;;;;;;;11.30;9.80;;;;;;;17.81;71.39;99744.89;106276;1254;71123;-85
2023/05/26 03:40:26;;;;;;;13.20;9.20;;;;;;;17.94;71.08;99740.34;106069;1253;72468;-84
2023/05/26 03:42:53;;;;;;;12.00;9.90;;;;;;;18.08;71.31;99740.48;106314;1253;60473;-82
2023/05/26 03:45:21;;;;;;;13.70;9.00;;;;;;;18.11;71.15;99742.13;106444;1255;60452;-84
2023/05/26 03:47:48;;;;;;;14.80;9.10;;;;;;;18.15;71.31;99740.31;106544;1254;73820;-82
2023/05/26 03:50:17;;;;;;;11.40;9.40;;;;;;;18.20;71.27;99744.33;109070;1253;68932;-80
2023/05/26 03:52:45;;;;;;;10.60;9.40;;;;;;;18.30;71.30;99743.85;108549;1253;71235;-80
2023/05/26 03:55:17;;;;;;;10.90;9.80;;;;;;;18.40;71.36;99742.27;106442;1261;60541;-82
2023/05/26 03:57:45;;;;;;;12.60;9.20;;;;;;;18.51;71.38;99745.66;106021;1253;60289;-82
2023/05/26 04:00:14;;;;;;;11.30;9.90;;;;;;;18.60;71.47;99749.19;105966;1254;72479;-80
2023/05/26 04:02:44;;;;;;;18.20;10.50;;;;;;;18.67;71.44;99747.26;105960;1258;69401;-82
2023/05/26 04:05:15;;;;;;;9.60;8.60;;;;;;;18.77;71.07;99747.88;105967;1253;70105;-82
2023/05/26 04:07:44;;;;;;;10.50;8.50;;;;;;;18.97;70.54;99747.88;106005;1256;60644;-83
2023/05/26 04:10:11;;;;;;;10.50;9.10;;;;;;;19.16;69.80;99743.16;106246;1254;60410;-81
2023/05/26 04:12:39;;;;;;;9.00;8.10;;;;;;;19.27;69.09;99741.91;108659;1253;73861;-80
2023/05/26 04:15:09;;;;;;;10.10;9.00;;;;;;;19.38;68.77;99742.85;108512;1254;70372;-80
2023/05/26 04:17:37;;;;;;;12.70;9.40;;;;;;;19.52;68.19;99742.90;106094;1254;73447;-79
2023/05/26 04:20:10;;;;;;;10.60;9.50;;;;;;;19.65;67.78;99745.25;105960;1258;60432;-81
2023/05/26 04:22:38;;;;;;;11.40;9.40;;;;;;;19.79;67.41;99742.27;105813;1253;60545;-80
2023/05/26 04:25:07;;;;;;;14.30;9.50;;;;;;;19.94;66.87;99742.66;105899;1254;72159;-82
2023/05/26 04:27:52;;;;;;;10.80;9.60;;;;;;;20.09;66.27;99745.38;106098;1260;69442;-82
2023/05/26 04:30:40;;;;;;;9.80;8.80;;;;;;;20.23;65.84;99744.10;106393;1254;71492;-85
2023/05/26 04:33:29;;;;;;;10.30;9.40;;;;;;;20.36;65.16;99748.79;109070;1254;58835;-80
2023/05/26 04:36:08;;;;;;;10.30;9.20;;;;;;;20.51;64.12;99749.86;108890;1253;59249;-82
2023/05/26 04:38:36;;;;;;;10.20;8.30;;;;;;;20.66;63.29;99752.35;109243;1254;72567;-85
2023/05/26 04:41:07;;;;;;;10.70;9.70;;;;;;;20.80;62.67;99754.62;108048;1254;68736;-85
2023/05/26 04:43:36;;;;;;;12.10;9.50;;;;;;;20.93;62.33;99754.69;107583;1253;71441;-85
2023/05/26 04:46:04;;;;;;;9.40;8.50;;;;;;;21.02;61.99;99755.92;107302;1253;60477;-81
2023/05/26 04:48:32;;;;;;;13.20;9.30;;;;;;;21.12;61.47;99760.07;108008;1253;60349;-87
2023/05/26 04:52:01;;;;;;;10.00;8.80;;;;;;;21.21;61.09;99756.45;108857;1257;73025;-82
2023/05/26 04:54:30;;;;;;;9.70;8.40;;;;;;;21.30;60.97;99752.36;108559;1257;69302;-83
2023/05/26 04:56:58;;;;;;;9.60;8.60;;;;;;;21.41;60.58;99751.02;108604;1257;71454;-82
2023/05/26 04:59:40;;;;;;;9.90;8.20;;;;;;;21.51;60.39;99751.94;106541;1257;60312;-79
2023/05/26 05:02:08;;;;;;;14.00;10.30;;;;;;;21.63;60.21;99751.38;105774;1258;60538;-80
2023/05/26 05:04:51;;;;;;;10.20;7.60;;;;;;;21.78;59.70;99750.36;108035;1257;72606;-82
2023/05/26 05:07:20;;;;;;;9.60;7.40;;;;;;;21.90;59.27;99750.38;108370;1257;70553;-84
2023/05/26 05:09:49;;;;;;;9.00;7.90;;;;;;;22.02;58.73;99753.56;108633;1253;71686;-85
2023/05/26 05:12:17;;;;;;;8.80;7.40;;;;;;;22.14;58.13;99761.08;108809;1253;60428;-84
2023/05/26 05:14:45;;;;;;;8.30;7.50;;;;;;;22.27;57.79;99760.24;108936;1253;58690;-83
2023/05/26 05:17:12;;;;;;;9.30;8.20;;;;;;;22.43;57.61;99767.77;108181;1253;71643;-83
2023/05/26 05:19:41;;;;;;;11.70;8.90;;;;;;;22.54;57.26;99767.13;106739;1255;70164;-82
2023/05/26 05:22:08;;;;;;;13.50;7.80;;;;;;;22.63;56.54;99771.04;106976;1253;71746;-81
2023/05/26 05:24:36;;;;;;;8.10;7.40;;;;;;;22.69;55.73;99769.73;107395;1253;61988;-82
2023/05/26 05:27:04;;;;;;;9.50;7.90;;;;;;;22.72;55.50;99768.92;106881;1258;60428;-81
2023/05/26 05:29:31;;;;;;;11.80;7.40;;;;;;;22.75;55.33;99768.70;107018;1253;74787;-81
2023/05/26 05:32:01;;;;;;;9.20;7.80;;;;;;;22.79;54.70;99771.84;106791;1253;69003;-82
2023/05/26 05:34:37;;;;;;;12.50;7.60;;;;;;;22.84;54.82;99772.56;107122;1254;73997;-84
2023/05/26 05:37:05;;;;;;;8.60;7.70;;;;;;;22.88;54.96;99769.77;106610;1256;60447;-84
2023/05/26 05:39:37;;;;;;;9.00;7.50;;;;;;;22.94;54.57;99770.27;106975;1254;60757;-83
2023/05/26 05:42:09;;;;;;;8.20;7.20;;;;;;;22.97;53.92;99766.16;107869;1253;72617;-85
2023/05/26 05:44:41;;;;;;;13.10;7.00;;;;;;;23.00;53.69;99766.41;107262;1253;69365;-85
2023/05/26 05:47:09;;;;;;;8.10;7.40;;;;;;;23.06;53.88;99769.49;106760;1253;71916;-83
2023/05/26 05:49:48;;;;;;;8.70;7.90;;;;;;;23.14;53.75;99763.38;106609;1254;60522;-81
2023/05/26 05:52:53;;;;;;;8.00;6.60;;;;;;;23.20;53.52;99765.79;106494;1254;60361;-88
2023/05/26 05:55:47;;;;;;;6.80;6.10;;;;;;;23.28;52.27;99766.87;108426;1253;73022;-84
2023/05/26 05:58:15;;;;;;;9.40;7.00;;;;;;;23.34;51.70;99771.05;108629;1253;68345;-82
2023/05/26 06:00:43;;;;;;;9.30;5.80;;;;;;;23.43;51.45;99769.86;108383;1257;71424;-74
2023/05/26 06:03:11;;;;;;;7.60;6.00;;;;;;;23.51;50.98;99766.01;105933;1254;61824;-76
2023/05/26 06:05:40;;;;;;;6.90;6.00;;;;;;;23.58;50.74;99766.80;105810;1253;60355;-73
2023/05/26 06:08:07;;;;;;;6.30;5.70;;;;;;;23.63;50.84;99762.30;105654;1254;72981;-76
2023/05/26 06:10:35;;;;;;;8.50;6.40;;;;;;;23.70;50.55;99763.68;105908;1254;69070;-75
2023/05/26 06:13:03;;;;;;;10.70;6.60;;;;;;;23.76;50.37;99763.27;105786;1253;71553;-75
2023/05/26 06:15:31;;;;;;;14.20;6.20;;;;;;;23.81;50.29;99765.45;106123;1254;60514;-79
2023/05/26 06:17:59;;;;;;;9.70;5.90;;;;;;;23.87;49.99;99769.59;106106;1254;60171;-76
2023/05/26 06:20:27;;;;;;;9.90;5.90;;;;;;;23.92;49.71;99771.60;105850;1253;72238;-75
2023/05/26 06:22:55;;;;;;;10.90;6.30;;;;;;;23.99;49.49;99770.92;105946;1260;69113;-78
2023/05/26 06:25:23;;;;;;;6.70;5.80;;;;;;;24.04;49.30;99773.35;106005;1256;72323;-76
2023/05/26 06:27:51;;;;;;;6.30;5.60;;;;;;;24.09;49.09;99773.07;105958;1258;60794;-75
2023/05/26 06:30:18;;;;;;;6.50;6.00;;;;;;;24.13;49.01;99775.39;105780;1253;60568;-76
2023/05/26 06:32:49;;;;;;;6.70;6.10;;;;;;;24.17;49.10;99773.58;105945;1253;72658;-75
2023/05/26 06:35:16;;;;;;;8.10;5.30;;;;;;;24.22;48.98;99778.51;105998;1253;70360;-76
2023/05/26 06:37:44;;;;;;;8.70;5.50;;;;;;;24.27;48.76;99776.05;105991;1258;72948;-73
2023/05/26 06:40:12;;;;;;;10.70;5.30;;;;;;;24.32;48.62;99775.02;105813;1254;60495;-76
2023/05/26 06:42:41;;;;;;;8.10;5.80;;;;;;;24.39;48.39;99776.21;105800;1254;60415;-75
2023/05/26 06:45:09;;;;;;;9.50;5.80;;;;;;;24.43;48.25;99776.36;106634;1253;72564;-75
2023/05/26 06:47:40;;;;;;;5.90;5.40;;;;;;;24.46;48.11;99776.60;108575;1253;71379;-76
2023/05/26 06:50:12;;;;;;;6.00;5.00;;;;;;;24.52;47.89;99774.34;108517;1254;71446;-75
2023/05/26 06:52:40;;;;;;;8.00;5.30;;;;;;;24.60;47.66;99773.38;108106;1253;60442;-77
2023/05/26 06:55:07;;;;;;;5.40;4.90;;;;;;;24.69;47.85;99776.00;106897;1254;59123;-72
2023/05/26 06:57:35;;;;;;;7.30;5.40;;;;;;;24.77;47.67;99778.61;106209;1253;72613;-72
2023/05/26 07:00:03;;;;;;;6.90;5.20;;;;;;;24.84;47.69;99777.52;106422;1255;70185;-73
2023/05/26 07:02:30;;;;;;;6.50;5.50;;;;;;;24.92;47.43;99779.90;106129;1256;72656;-73
2023/05/26 07:05:15;;;;;;;5.60;5.10;;;;;;;25.01;46.89;99781.15;106263;1260;60438;-73
2023/05/26 07:07:43;;;;;;;6.70;5.20;;;;;;;25.08;46.45;99779.73;106477;1253;60518;-73
2023/05/26 07:10:11;;;;;;;5.50;5.00;;;;;;;25.15;45.76;99777.05;106425;1253;72451;-74
2023/05/26 07:12:40;;;;;;;5.20;4.80;;;;;;;25.21;45.48;99777.48;106246;1253;265540;-70
2023/05/26 07:16:20;;;;;;;8.60;5.50;;;;;;;25.33;45.45;99778.63;103481;1292;601267;-73
2023/05/26 07:18:48;;;;;;;6.30;5.00;;;;;;;25.40;44.77;99778.11;106229;1270;59253;-73
2023/05/26 07:21:18;;;;;;;6.40;5.60;;;;;;;25.45;44.70;99775.38;106070;1270;58853;-71
2023/05/26 07:23:48;;;;;;;5.30;4.80;;;;;;;25.50;44.41;99776.97;106036;1267;72267;-73
2023/05/26 07:26:16;;;;;;;4.80;4.30;;;;;;;25.56;43.78;99776.18;106220;1273;69310;-72
2023/05/26 07:28:43;;;;;;;5.40;4.00;;;;;;;25.58;43.11;99772.86;106228;1272;72036;-72
2023/05/26 07:31:10;;;;;;;8.20;5.10;;;;;;;25.58;42.77;99774.49;107314;1253;170169;-71
2023/05/26 07:33:40;;;;;;;7.70;5.00;;;;;;;25.60;42.81;99770.20;108554;1254;59365;-72
2023/05/26 07:36:08;;;;;;;5.30;4.50;;;;;;;25.66;42.89;99774.15;108959;1253;70824;-74
2023/05/26 07:38:35;;;;;;;4.90;4.40;;;;;;;25.71;42.61;99773.34;109295;1253;70904;-75
2023/05/26 07:41:03;;;;;;;5.70;5.20;;;;;;;25.78;42.38;99777.98;109175;1253;70945;-74
2023/05/26 07:43:31;;;;;;;5.40;4.90;;;;;;;25.84;42.71;99778.27;109264;1253;58888;-75
2023/05/26 07:45:58;;;;;;;7.70;5.70;;;;;;;25.86;42.91;99776.05;109218;1253;59193;-71
2023/05/26 07:48:26;;;;;;;10.10;5.60;;;;;;;25.91;43.05;99774.33;108273;1254;71567;-72
2023/05/26 07:50:54;;;;;;;8.30;4.90;;;;;;;25.95;42.71;99774.79;109132;1256;69056;-72
2023/05/26 07:53:21;;;;;;;4.80;4.20;;;;;;;26.01;42.45;99774.54;109228;1253;71431;-77
2023/05/26 07:55:49;;;;;;;6.40;5.80;;;;;;;26.10;42.35;99771.92;108892;1252;59685;-73
2023/05/26 07:58:17;;;;;;;10.60;5.40;;;;;;;26.16;42.40;99769.54;108465;1253;59225;-74
2023/05/26 08:00:45;;;;;;;6.20;5.60;;;;;;;26.22;42.54;99773.64;108593;1253;71953;-74
2023/05/26 08:03:12;;;;;;;6.40;5.00;;;;;;;26.28;42.90;99776.09;108825;1253;68719;-73
2023/05/26 08:05:42;;;;;;;6.10;5.60;;;;;;;26.37;43.00;99776.75;108819;1254;71494;-74
2023/05/26 08:08:09;;;;;;;5.90;5.40;;;;;;;26.48;43.09;99776.80;107852;1252;59638;-74
2023/05/26 08:10:37;;;;;;;5.80;5.20;;;;;;;26.57;42.61;99778.73;108553;1254;61157;-74
2023/05/26 08:13:05;;;;;;;6.00;5.40;;;;;;;26.63;42.41;99774.27;108504;1254;71810;-75
2023/05/26 08:15:32;;;;;;;6.10;5.50;;;;;;;26.69;42.86;99774.80;107903;1253;69594;-74
2023/05/26 08:17:59;;;;;;;7.20;5.20;;;;;;;26.74;42.73;99772.29;108680;1253;71536;-73
2023/05/26 08:20:27;;;;;;;4.70;4.30;;;;;;;26.79;41.88;99771.80;108691;1253;59487;-74
2023/05/26 08:22:57;;;;;;;5.10;4.60;;;;;;;26.88;41.37;99777.94;108543;1253;60034;-74
2023/05/26 08:25:25;;;;;;;7.10;4.60;;;;;;;26.94;40.90;99774.65;106532;1254;73021;-74
2023/05/26 08:27:53;;;;;;;7.80;5.40;;;;;;;26.94;40.68;99775.75;105829;1255;68986;-74
2023/05/26 08:30:21;;;;;;;5.70;4.70;;;;;;;26.97;41.18;99773.84;105878;1257;71148;-74
2023/05/26 08:32:48;;;;;;;5.30;4.70;;;;;;;27.00;40.99;99772.08;105747;1253;60371;-75
2023/05/26 08:35:16;;;;;;;4.30;4.00;;;;;;;27.05;41.27;99771.68;105775;1257;59669;-75
2023/05/26 08:37:44;;;;;;;5.10;4.70;;;;;;;27.15;40.96;99762.65;105785;1253;74085;-74
2023/05/26 08:40:11;;;;;;;7.40;4.90;;;;;;;27.26;41.02;99759.15;105774;1254;70591;-73
2023/05/26 08:42:45;;;;;;;5.10;4.60;;;;;;;27.39;40.51;99759.77;105813;1257;72779;-74
2023/05/26 08:45:13;;;;;;;7.20;4.70;;;;;;;27.53;40.36;99760.09;105853;1257;59679;-73
2023/05/26 08:47:41;;;;;;;5.80;5.10;;;;;;;27.60;40.15;99755.85;105878;1253;60298;-75
2023/05/26 08:50:09;;;;;;;5.70;5.00;;;;;;;27.73;39.97;99754.80;105898;1254;71823;-74
2023/05/26 08:52:38;;;;;;;6.80;4.80;;;;;;;27.92;39.74;99749.24;105829;1253;70784;-74
2023/05/26 08:55:17;;;;;;;7.30;4.20;;;;;;;28.20;39.36;99748.99;105795;1253;71146;-75
2023/05/26 08:57:44;;;;;;;5.30;4.80;;;;;;;28.45;38.40;99745.63;105794;1258;59715;-76
2023/05/26 09:00:12;;;;;;;6.60;4.80;;;;;;;28.66;38.01;99743.48;105810;1253;59679;-74
2023/05/26 09:02:40;;;;;;;5.70;4.60;;;;;;;28.84;37.38;99739.48;105815;1258;73357;-75
2023/05/26 09:05:08;;;;;;;6.90;5.20;;;;;;;28.99;36.95;99731.33;105823;1253;69953;-74
2023/05/26 09:07:35;;;;;;;5.20;4.80;;;;;;;29.16;36.81;99732.46;105785;1257;72601;-74
2023/05/26 09:10:24;;;;;;;4.90;4.20;;;;;;;29.38;36.18;99734.39;105780;1253;61747;-72
2023/05/26 09:13:03;;;;;;;4.80;4.00;;;;;;;29.63;35.89;99728.42;105740;1253;60119;-74
2023/05/26 09:15:30;;;;;;;4.90;4.30;;;;;;;29.88;35.58;99727.48;105841;1257;75236;-72
2023/05/26 09:18:09;;;;;;;4.60;3.80;;;;;;;30.19;35.08;99730.19;105932;1256;68715;-74
2023/05/26 09:20:44;;;;;;;5.30;4.80;;;;;;;30.60;34.50;99732.02;105942;1253;72368;-75
2023/05/26 09:23:12;;;;;;;4.80;4.20;;;;;;;31.07;33.98;99727.60;105906;1257;59698;-74
2023/05/26 09:25:43;;;;;;;6.30;4.20;;;;;;;31.59;33.66;99726.45;105836;1253;60043;-73
2023/05/26 09:28:11;;;;;;;4.60;4.00;;;;;;;32.20;32.60;99720.05;105901;1257;73354;-75
2023/05/26 09:30:43;;;;;;;4.70;4.30;;;;;;;32.82;31.74;99719.80;105858;1253;70086;-75
2023/05/26 09:33:16;;;;;;;6.60;4.20;;;;;;;33.48;30.96;99711.02;106108;1253;71077;-75
2023/05/26 09:35:48;;;;;;;3.80;3.50;;;;;;;34.05;29.63;99705.95;105978;1257;61381;-75
2023/05/26 09:38:17;;;;;;;;;;;;;;;34.48;29.21;99694.39;106117;1253;59782;-75
2023/05/26 09:40:48;;;;;;;4.60;4.20;;;;;;;34.84;29.07;99697.88;105881;1257;66359;-75
2023/05/26 09:43:21;;;;;;;4.50;3.80;;;;;;;35.24;28.73;99697.99;105774;1254;62846;-75
2023/05/26 09:45:49;;;;;;;4.60;4.20;;;;;;;35.64;28.29;99694.73;105772;1255;71793;-74
2023/05/26 09:48:17;;;;;;;6.00;4.10;;;;;;;35.74;28.04;99692.02;105751;1253;59619;-73
2023/05/26 09:50:44;;;;;;;4.70;3.60;;;;;;;35.81;27.35;99690.80;105772;1255;59725;-76
2023/05/26 09:53:12;;;;;;;4.30;3.70;;;;;;;35.91;27.18;99687.17;105683;1260;64493;-73
2023/05/26 09:55:40;;;;;;;7.60;4.10;;;;;;;35.93;26.72;99690.44;105881;1254;61734;-76
2023/05/26 09:58:10;;;;;;;4.20;3.90;;;;;;;35.84;26.43;99689.48;105893;1256;62719;-76
2023/05/26 10:00:41;;;;;;;5.50;3.90;;;;;;;35.81;26.64;99686.12;105827;1253;59718;-76
2023/05/26 10:03:09;;;;;;;6.60;4.20;;;;;;;36.10;26.48;99682.35;105948;1255;60126;-76
2023/05/26 10:05:38;;;;;;;5.20;3.70;;;;;;;36.52;25.97;99675.65;105961;1253;64108;-74
2023/05/26 10:08:06;;;;;;;4.30;3.90;;;;;;;36.96;25.58;99674.89;106688;1253;61462;-73
2023/05/26 10:10:34;;;;;;;4.30;3.90;;;;;;;37.36;25.46;99674.16;106437;1256;62462;-73
2023/05/26 10:13:03;;;;;;;4.90;3.80;;;;;;;37.77;25.38;99666.24;106288;1253;59647;-75
2023/05/26 10:15:31;;;;;;;4.70;4.00;;;;;;;38.09;25.05;99663.52;106059;1253;59654;-74
2023/05/26 10:18:00;;;;;;;4.20;3.70;;;;;;;38.49;24.62;99660.35;105943;1253;63371;-74
2023/05/26 10:20:31;;;;;;;3.80;3.50;;;;;;;38.80;23.95;99655.56;105927;1253;60258;-72
2023/05/26 10:23:00;;;;;;;6.20;3.60;;;;;;;39.06;24.09;99654.29;105832;1253;64079;-74
2023/05/26 10:25:31;;;;;;;4.80;3.90;;;;;;;39.48;23.78;99655.83;105856;1253;59685;-73
2023/05/26 10:28:18;;;;;;;4.40;3.10;;;;;;;39.83;23.34;99662.89;106023;1253;59524;-74
2023/05/26 10:30:45;;;;;;;3.50;3.20;;;;;;;40.09;23.01;99662.13;105933;1257;64227;-74
2023/05/26 10:33:14;;;;;;;3.80;3.50;;;;;;;40.37;22.96;99661.94;105971;1257;60314;-73
2023/05/26 10:35:55;;;;;;;3.70;3.40;;;;;;;40.47;22.92;99658.05;105962;1258;62465;-74
2023/05/26 10:38:28;;;;;;;5.10;3.80;;;;;;;40.23;22.94;99658.52;105977;1253;59718;-74
2023/05/26 10:40:56;;;;;;;3.80;3.50;;;;;;;39.84;23.00;99659.92;106078;1257;59711;-71
2023/05/26 10:43:24;;;;;;;4.90;4.40;;;;;;;39.59;23.32;99663.38;106027;1253;62911;-76
2023/05/26 10:45:54;;;;;;;5.20;3.70;;;;;;;39.66;23.12;99659.95;105961;1257;61349;-75
2023/05/26 10:48:34;;;;;;;5.00;4.10;;;;;;;39.95;22.95;99659.02;105870;1253;66083;-76
2023/05/26 10:51:06;;;;;;;3.30;3.10;;;;;;;40.23;22.37;99661.27;105818;1253;59628;-76
2023/05/26 10:53:43;;;;;;;4.30;3.70;;;;;;;40.45;22.11;99661.83;105813;1257;59624;-73
2023/05/26 10:56:14;;;;;;;4.40;3.60;;;;;;;40.60;22.34;99657.87;105935;1253;64094;-77
2023/05/26 10:58:48;;;;;;;6.00;4.00;;;;;;;40.76;22.19;99652.57;105846;1253;60095;-75
2023/05/26 11:01:28;;;;;;;4.60;3.60;;;;;;;40.98;22.09;99652.20;105921;1253;63844;-75
2023/05/26 11:04:05;;;;;;;4.20;3.80;;;;;;;41.30;22.34;99655.27;105890;1253;59629;-74
2023/05/26 11:06:54;;;;;;;4.50;3.40;;;;;;;41.64;21.98;99656.18;105900;1255;59630;-78
2023/05/26 11:09:22;;;;;;;4.00;3.70;;;;;;;41.87;21.67;99655.90;105898;1257;64169;-76
2023/05/26 11:11:57;;;;;;;4.50;3.60;;;;;;;42.04;21.85;99652.49;105834;1253;62412;-74
2023/05/26 11:14:28;;;;;;;4.20;3.70;;;;;;;42.23;21.80;99656.34;105997;1257;71335;-76
2023/05/26 11:17:00;;;;;;;4.00;3.40;;;;;;;42.34;21.03;99654.05;105918;1253;59571;-74
2023/05/26 11:19:31;;;;;;;4.40;3.60;;;;;;;42.47;20.93;99649.30;105907;1253;59669;-75
2023/05/26 11:21:59;;;;;;;4.00;3.40;;;;;;;42.63;21.11;99646.95;105865;1257;64296;-74
2023/05/26 11:24:27;;;;;;;4.30;3.60;;;;;;;42.81;20.71;99646.44;106164;1252;61401;-74
2023/05/26 11:26:54;;;;;;;4.30;3.90;;;;;;;42.90;20.66;99637.99;105926;1257;73444;-74
2023/05/26 11:29:25;;;;;;;4.00;3.60;;;;;;;43.10;20.81;99641.68;106127;1253;60941;-72
2023/05/26 11:31:52;;;;;;;3.80;3.50;;;;;;;43.41;20.16;99639.61;106948;1253;60513;-76
2023/05/26 11:34:21;;;;;;;3.90;3.60;;;;;;;43.63;19.70;99637.62;106924;1251;64179;-76
2023/05/26 11:36:51;;;;;;;4.70;3.90;;;;;;;43.73;19.58;99637.27;107074;1253;61398;-75
2023/05/26 11:39:22;;;;;;;4.00;3.60;;;;;;;43.71;19.69;99638.31;106058;1256;62447;-77